createdAt,value
2022-11-20T00:00:00.403Z,33.60
2022-11-20T00:01:02.422Z,33.54
2022-11-20T00:01:42.456Z,32.92
2022-11-20T00:02:22.443Z,33.47
2022-11-20T00:03:02.340Z,33.66
2022-11-20T00:03:49.373Z,33.80
2022-11-20T00:04:43.351Z,33.42
2022-11-20T00:05:37.384Z,33.90
2022-11-20T00:06:33.409Z,33.51
2022-11-20T00:07:27.387Z,33.92
2022-11-20T00:08:21.370Z,33.29
2022-11-20T00:09:09.379Z,34.60
2022-11-20T00:09:43.452Z,33.91
2022-11-20T00:10:30.375Z,33.86
2022-11-20T00:11:04.452Z,33.46
2022-11-20T00:11:51.356Z,33.99
2022-11-20T00:12:25.415Z,32.28
2022-11-20T00:13:12.385Z,32.94
2022-11-20T00:13:46.437Z,32.85
2022-11-20T00:14:33.393Z,32.28
2022-11-20T00:15:07.376Z,32.30
2022-11-20T00:15:54.367Z,34.31
2022-11-20T00:16:31.603Z,34.10
2022-11-20T00:17:18.318Z,33.00
2022-11-20T00:17:52.404Z,33.24
2022-11-20T00:18:41.386Z,32.41
2022-11-20T00:19:16.421Z,31.67
2022-11-20T00:19:56.412Z,32.80
2022-11-20T00:20:37.367Z,32.42
2022-11-20T00:21:27.372Z,33.11
2022-11-20T00:22:07.380Z,32.64
2022-11-20T00:22:47.360Z,33.41
2022-11-20T00:23:27.361Z,33.47
2022-11-20T00:24:08.359Z,31.76
2022-11-20T00:24:49.431Z,33.63
2022-11-20T00:25:30.342Z,33.03
2022-11-20T00:26:15.444Z,33.80
2022-11-20T00:26:56.375Z,35.74
2022-11-20T00:27:36.719Z,37.56
2022-11-20T00:28:17.448Z,38.30
2022-11-20T00:29:01.551Z,36.74
2022-11-20T00:29:41.346Z,37.71
2022-11-20T00:30:21.388Z,38.89
2022-11-20T00:31:09.365Z,39.01
2022-11-20T00:31:49.445Z,38.58
2022-11-20T00:32:32.363Z,38.21
2022-11-20T00:33:13.456Z,37.67
2022-11-20T00:33:54.345Z,38.33
2022-11-20T00:34:34.371Z,36.64
2022-11-20T00:35:15.286Z,36.53
2022-11-20T00:35:55.385Z,35.28
2022-11-20T00:36:39.331Z,33.49
2022-11-20T00:37:19.337Z,33.97
2022-11-20T00:38:00.317Z,34.92
2022-11-20T00:38:40.442Z,35.84
2022-11-20T00:39:20.556Z,35.54
2022-11-20T00:40:01.399Z,34.71
2022-11-20T00:40:41.319Z,34.26
2022-11-20T00:41:23.457Z,33.55
2022-11-20T00:42:04.335Z,32.84
2022-11-20T00:42:45.351Z,33.47
2022-11-20T00:43:25.303Z,32.99
2022-11-20T00:44:05.475Z,32.01
2022-11-20T00:44:45.331Z,32.90
2022-11-20T00:45:25.398Z,33.15
2022-11-20T00:46:17.342Z,32.28
2022-11-20T00:46:57.434Z,33.05
2022-11-20T00:47:38.345Z,33.60
2022-11-20T00:48:18.413Z,32.99
2022-11-20T00:48:59.311Z,32.96
2022-11-20T00:49:39.417Z,32.69
2022-11-20T00:50:19.276Z,33.14
2022-11-20T00:51:00.442Z,33.08
2022-11-20T00:51:40.299Z,33.58
2022-11-20T00:52:23.415Z,33.83
2022-11-20T00:53:03.317Z,34.31
2022-11-20T00:53:43.342Z,35.91
2022-11-20T00:54:23.299Z,37.01
2022-11-20T00:55:04.387Z,38.22
2022-11-20T00:55:44.295Z,40.40
2022-11-20T00:56:26.300Z,41.40
2022-11-20T00:57:07.274Z,44.75
2022-11-20T00:57:47.431Z,42.36
2022-11-20T00:58:28.350Z,39.94
2022-11-20T00:59:09.365Z,39.70
2022-11-20T00:59:49.309Z,36.80
2022-11-20T01:00:29.526Z,36.20
2022-11-20T01:01:19.386Z,37.08
2022-11-20T01:02:13.284Z,34.49
2022-11-20T01:03:07.314Z,35.17
2022-11-20T01:03:50.343Z,33.67
2022-11-20T01:04:31.466Z,33.11
2022-11-20T01:05:12.315Z,32.86
2022-11-20T01:05:52.319Z,31.46
2022-11-20T01:06:40.291Z,32.94
2022-11-20T01:07:22.386Z,32.01
2022-11-20T01:08:02.307Z,32.72
2022-11-20T01:08:43.535Z,32.04
2022-11-20T01:09:24.402Z,31.81
2022-11-20T01:10:04.380Z,32.20
2022-11-20T01:10:44.289Z,32.08
2022-11-20T01:11:36.389Z,32.08
2022-11-20T01:12:17.301Z,33.46
2022-11-20T01:13:15.896Z,32.97
2022-11-20T01:13:59.260Z,31.39
2022-11-20T01:14:39.322Z,31.77
2022-11-20T01:15:13.310Z,32.95
2022-11-20T01:16:00.301Z,32.26
2022-11-20T01:16:40.359Z,32.34
2022-11-20T01:17:27.324Z,32.97
2022-11-20T01:18:01.316Z,32.97
2022-11-20T01:18:51.304Z,32.60
2022-11-20T01:19:29.379Z,32.13
2022-11-20T01:20:10.303Z,31.58
2022-11-20T01:20:50.269Z,32.19
2022-11-20T01:21:35.296Z,31.92
2022-11-20T01:22:16.354Z,32.19
2022-11-20T01:22:56.297Z,32.89
2022-11-20T01:23:41.341Z,31.86
2022-11-20T01:24:24.252Z,32.54
2022-11-20T01:25:04.494Z,32.31
2022-11-20T01:25:45.293Z,31.39
2022-11-20T01:26:32.392Z,32.31
2022-11-20T01:27:13.261Z,32.46
2022-11-20T01:27:53.330Z,31.92
2022-11-20T01:28:33.280Z,31.85
2022-11-20T01:29:16.417Z,32.64
2022-11-20T01:30:00.986Z,33.51
2022-11-20T01:30:41.427Z,31.94
2022-11-20T01:31:26.364Z,31.92
2022-11-20T01:32:06.319Z,32.90
2022-11-20T01:32:47.269Z,33.28
2022-11-20T01:33:27.287Z,32.58
2022-11-20T01:34:11.288Z,32.83
2022-11-20T01:34:51.290Z,31.75
2022-11-20T01:35:31.240Z,31.67
2022-11-20T01:36:15.659Z,31.25
2022-11-20T01:36:56.290Z,31.25
2022-11-20T01:37:37.333Z,31.90
2022-11-20T01:38:17.264Z,32.13
2022-11-20T01:39:02.412Z,32.51
2022-11-20T01:39:43.241Z,32.61
2022-11-20T01:40:23.338Z,32.45
2022-11-20T01:41:04.244Z,32.00
2022-11-20T01:42:10.348Z,33.08
2022-11-20T01:43:31.278Z,32.65
2022-11-20T01:44:28.316Z,31.52
2022-11-20T01:46:14.223Z,32.56
2022-11-20T01:47:18.245Z,32.78
2022-11-20T01:48:12.234Z,31.74
2022-11-20T01:49:16.262Z,30.60
2022-11-20T01:50:31.263Z,30.81
2022-11-20T01:51:48.260Z,30.92
2022-11-20T01:53:13.275Z,31.10
2022-11-20T01:53:47.267Z,30.76
2022-11-20T01:55:07.194Z,30.92
2022-11-20T01:56:03.332Z,30.77
2022-11-20T01:56:53.250Z,29.94
2022-11-20T01:57:27.259Z,30.26
2022-11-20T01:58:15.230Z,30.58
2022-11-20T01:58:56.273Z,30.06
2022-11-20T01:59:51.239Z,30.88
2022-11-20T02:00:27.318Z,30.36
2022-11-20T02:01:14.238Z,29.46
2022-11-20T02:01:48.491Z,30.50
2022-11-20T02:02:35.253Z,30.02
2022-11-20T02:03:30.265Z,30.02
2022-11-20T02:04:25.252Z,29.79
2022-11-20T02:05:50.204Z,29.85
2022-11-20T02:06:59.263Z,28.70
2022-11-20T02:07:53.204Z,28.88
2022-11-20T02:08:48.237Z,29.40
2022-11-20T02:09:43.231Z,30.51
2022-11-20T02:10:38.243Z,29.70
2022-11-20T02:11:32.199Z,30.48
2022-11-20T02:12:44.235Z,30.83
2022-11-20T02:13:53.246Z,30.61
2022-11-20T02:14:47.199Z,28.60
2022-11-20T02:15:41.245Z,29.06
2022-11-20T02:16:42.216Z,29.31
2022-11-20T02:17:36.191Z,29.51
2022-11-20T02:18:33.231Z,30.74
2022-11-20T02:19:21.463Z,30.60
2022-11-20T02:20:02.235Z,30.10
2022-11-20T02:20:43.241Z,29.51
2022-11-20T02:21:49.297Z,28.95
2022-11-20T02:22:41.224Z,29.16
2022-11-20T02:23:47.781Z,28.36
2022-11-20T02:24:30.283Z,28.42
2022-11-20T02:25:13.418Z,29.60
2022-11-20T02:25:55.243Z,29.94
2022-11-20T02:26:40.394Z,28.36
2022-11-20T02:27:22.195Z,29.39
2022-11-20T02:28:02.242Z,30.17
2022-11-20T02:28:42.200Z,30.33
2022-11-20T02:29:26.307Z,29.46
2022-11-20T02:30:15.214Z,29.64
2022-11-20T02:30:55.292Z,30.36
2022-11-20T02:31:36.180Z,30.89
2022-11-20T02:32:39.240Z,31.20
2022-11-20T02:33:20.164Z,30.35
2022-11-20T02:34:05.466Z,28.59
2022-11-20T02:34:46.198Z,28.69
2022-11-20T02:35:33.249Z,28.23
2022-11-20T02:36:30.176Z,28.83
2022-11-20T02:37:24.257Z,29.64
2022-11-20T02:38:18.244Z,29.23
2022-11-20T02:39:12.201Z,29.54
2022-11-20T02:40:07.201Z,30.50
2022-11-20T02:40:55.746Z,30.08
2022-11-20T02:41:42.308Z,30.36
2022-11-20T02:42:29.196Z,29.90
2022-11-20T02:43:04.608Z,29.40
2022-11-20T02:43:52.184Z,29.70
2022-11-20T02:44:26.334Z,30.33
2022-11-20T02:45:15.175Z,28.42
2022-11-20T02:45:49.260Z,29.51
2022-11-20T02:46:29.191Z,30.94
2022-11-20T02:47:09.403Z,29.42
2022-11-20T02:47:49.161Z,30.13
2022-11-20T02:48:43.183Z,31.42
2022-11-20T02:49:37.151Z,29.75
2022-11-20T02:50:31.166Z,29.80
2022-11-20T02:51:25.199Z,29.84
2022-11-20T02:52:05.191Z,29.04
2022-11-20T02:52:45.196Z,29.79
2022-11-20T02:53:26.136Z,29.36
2022-11-20T02:54:06.220Z,29.36
2022-11-20T02:54:46.160Z,29.99
2022-11-20T02:55:26.269Z,29.89
2022-11-20T02:56:06.139Z,29.73
2022-11-20T02:56:47.201Z,30.17
2022-11-20T02:57:27.207Z,30.49
2022-11-20T02:58:07.180Z,30.50
2022-11-20T02:58:47.139Z,30.06
2022-11-20T02:59:27.220Z,28.54
2022-11-20T03:00:07.134Z,28.63
2022-11-20T03:00:47.254Z,28.83
2022-11-20T03:01:27.250Z,29.08
2022-11-20T03:02:07.289Z,29.42
2022-11-20T03:02:48.185Z,29.80
2022-11-20T03:03:28.356Z,30.66
2022-11-20T03:04:09.166Z,30.30
2022-11-20T03:04:49.173Z,31.52
2022-11-20T03:05:29.112Z,29.86
2022-11-20T03:06:09.179Z,29.14
2022-11-20T03:06:49.148Z,29.92
2022-11-20T03:07:29.226Z,30.88
2022-11-20T03:08:09.204Z,30.14
2022-11-20T03:08:50.176Z,30.86
2022-11-20T03:09:30.143Z,30.44
2022-11-20T03:10:12.189Z,29.99
2022-11-20T03:10:53.148Z,29.73
2022-11-20T03:11:34.378Z,29.21
2022-11-20T03:12:15.116Z,29.58
2022-11-20T03:12:56.217Z,29.60
2022-11-20T03:13:37.137Z,29.52
2022-11-20T03:14:17.168Z,30.83
2022-11-20T03:14:57.149Z,29.55
2022-11-20T03:15:37.424Z,29.76
2022-11-20T03:16:21.123Z,30.90
2022-11-20T03:17:01.188Z,30.65
2022-11-20T03:17:41.123Z,28.46
2022-11-20T03:18:21.184Z,30.54
2022-11-20T03:19:01.138Z,30.06
2022-11-20T03:19:41.180Z,29.63
2022-11-20T03:20:22.132Z,29.55
2022-11-20T03:21:06.240Z,29.69
2022-11-20T03:21:47.132Z,30.11
2022-11-20T03:22:27.160Z,29.17
2022-11-20T03:23:08.143Z,30.36
2022-11-20T03:23:49.154Z,30.81
2022-11-20T03:24:29.141Z,29.76
2022-11-20T03:25:09.153Z,29.76
2022-11-20T03:25:49.127Z,29.14
2022-11-20T03:26:33.204Z,29.59
2022-11-20T03:27:13.145Z,29.92
2022-11-20T03:27:53.185Z,29.80
2022-11-20T03:28:33.116Z,28.92
2022-11-20T03:29:13.160Z,30.59
2022-11-20T03:29:53.132Z,31.26
2022-11-20T03:30:33.435Z,32.50
2022-11-20T03:31:20.105Z,32.96
2022-11-20T03:32:00.143Z,32.88
2022-11-20T03:32:40.104Z,33.39
2022-11-20T03:33:20.129Z,34.28
2022-11-20T03:34:00.108Z,34.76
2022-11-20T03:34:40.183Z,37.44
2022-11-20T03:35:20.132Z,36.88
2022-11-20T03:36:00.156Z,35.90
2022-11-20T03:36:40.115Z,33.78
2022-11-20T03:37:20.386Z,33.97
2022-11-20T03:38:00.109Z,34.84
2022-11-20T03:38:41.140Z,32.86
2022-11-20T03:39:21.456Z,31.65
2022-11-20T03:40:02.149Z,32.11
2022-11-20T03:40:43.155Z,31.55
2022-11-20T03:41:27.243Z,30.52
2022-11-20T03:42:07.091Z,31.26
2022-11-20T03:42:47.212Z,31.52
2022-11-20T03:43:27.103Z,30.13
2022-11-20T03:44:10.180Z,30.38
2022-11-20T03:44:50.103Z,30.11
2022-11-20T03:45:30.122Z,29.42
2022-11-20T03:46:11.109Z,29.69
2022-11-20T03:46:51.204Z,29.79
2022-11-20T03:47:31.103Z,30.10
2022-11-20T03:48:25.093Z,30.04
2022-11-20T03:49:20.359Z,29.91
2022-11-20T03:50:14.093Z,31.31
2022-11-20T03:51:28.120Z,30.50
2022-11-20T03:52:22.066Z,31.73
2022-11-20T03:53:16.099Z,31.33
2022-11-20T03:54:13.083Z,31.34
2022-11-20T03:55:07.087Z,29.99
2022-11-20T03:56:06.091Z,29.70
2022-11-20T03:56:53.089Z,30.19
2022-11-20T03:57:27.365Z,30.46
2022-11-20T03:58:14.058Z,31.52
2022-11-20T03:58:48.112Z,30.98
2022-11-20T03:59:35.107Z,31.23
2022-11-20T04:00:10.167Z,32.75
2022-11-20T04:00:57.101Z,30.76
2022-11-20T04:01:44.197Z,30.66
2022-11-20T04:02:27.105Z,31.05
2022-11-20T04:03:09.107Z,31.46
2022-11-20T04:03:51.077Z,33.97
2022-11-20T04:04:31.107Z,35.55
2022-11-20T04:05:12.053Z,35.53
2022-11-20T04:05:52.147Z,35.41
2022-11-20T04:06:41.083Z,36.25
2022-11-20T04:07:21.147Z,35.10
2022-11-20T04:08:01.108Z,33.80
2022-11-20T04:08:41.093Z,33.53
2022-11-20T04:09:22.168Z,34.66
2022-11-20T04:10:02.105Z,36.40
2022-11-20T04:10:42.075Z,36.11
2022-11-20T04:11:26.100Z,34.66
2022-11-20T04:12:06.048Z,32.83
2022-11-20T04:12:46.124Z,33.42
2022-11-20T04:13:26.105Z,32.81
2022-11-20T04:14:10.134Z,33.25
2022-11-20T04:14:51.066Z,32.66
2022-11-20T04:15:34.369Z,32.55
2022-11-20T04:16:18.038Z,34.34
2022-11-20T04:16:58.092Z,33.86
2022-11-20T04:17:38.043Z,33.13
2022-11-20T04:18:18.102Z,33.65
2022-11-20T04:19:03.095Z,35.17
2022-11-20T04:19:43.126Z,38.08
2022-11-20T04:20:23.083Z,37.21
2022-11-20T04:21:05.106Z,36.96
2022-11-20T04:21:45.077Z,39.81
2022-11-20T04:22:25.124Z,40.91
2022-11-20T04:23:05.034Z,40.09
2022-11-20T04:23:45.111Z,40.06
2022-11-20T04:24:26.072Z,39.25
2022-11-20T04:25:06.052Z,38.44
2022-11-20T04:25:46.084Z,40.61
2022-11-20T04:26:28.218Z,40.20
2022-11-20T04:27:09.082Z,38.00
2022-11-20T04:27:50.127Z,36.72
2022-11-20T04:28:30.065Z,35.25
2022-11-20T04:29:10.084Z,35.54
2022-11-20T04:29:50.038Z,34.25
2022-11-20T04:30:30.105Z,33.83
2022-11-20T04:31:12.034Z,32.39
2022-11-20T04:31:52.063Z,31.58
2022-11-20T04:32:32.036Z,33.34
2022-11-20T04:33:12.067Z,33.21
2022-11-20T04:33:53.023Z,33.66
2022-11-20T04:34:33.113Z,35.54
2022-11-20T04:35:14.059Z,37.15
2022-11-20T04:35:55.042Z,36.59
2022-11-20T04:36:38.056Z,35.17
2022-11-20T04:37:18.108Z,36.35
2022-11-20T04:38:02.059Z,37.56
2022-11-20T04:38:42.283Z,36.96
2022-11-20T04:39:23.314Z,35.59
2022-11-20T04:40:05.169Z,35.84
2022-11-20T04:40:45.063Z,36.05
2022-11-20T04:41:28.345Z,34.79
2022-11-20T04:42:27.041Z,34.67
2022-11-20T04:43:07.072Z,34.58
2022-11-20T04:43:47.046Z,35.00
2022-11-20T04:44:27.072Z,33.86
2022-11-20T04:45:07.040Z,33.97
2022-11-20T04:45:54.052Z,34.71
2022-11-20T04:46:53.043Z,34.09
2022-11-20T04:47:47.044Z,32.78
2022-11-20T04:48:43.069Z,30.64
2022-11-20T04:49:39.054Z,30.96
2022-11-20T04:50:33.014Z,32.06
2022-11-20T04:51:14.017Z,32.67
2022-11-20T04:51:54.240Z,33.15
2022-11-20T04:52:35.035Z,33.31
2022-11-20T04:53:15.071Z,32.58
2022-11-20T04:53:56.027Z,30.94
2022-11-20T04:54:36.059Z,32.15
2022-11-20T04:55:16.039Z,32.39
2022-11-20T04:55:56.066Z,32.64
2022-11-20T04:56:36.005Z,32.59
2022-11-20T04:57:16.412Z,34.33
2022-11-20T04:57:59.003Z,34.26
2022-11-20T04:58:39.080Z,34.38
2022-11-20T04:59:19.265Z,35.95
2022-11-20T05:00:00.087Z,36.49
2022-11-20T05:00:41.041Z,35.45
2022-11-20T05:01:25.121Z,33.11
2022-11-20T05:02:06.048Z,34.00
2022-11-20T05:02:46.032Z,34.89
2022-11-20T05:03:25.989Z,34.31
2022-11-20T05:04:06.666Z,33.61
2022-11-20T05:04:47.034Z,35.92
2022-11-20T05:05:27.068Z,36.84
2022-11-20T05:06:13.022Z,35.63
2022-11-20T05:06:53.072Z,36.58
2022-11-20T05:07:33.144Z,36.08
2022-11-20T05:08:13.063Z,37.29
2022-11-20T05:08:53.020Z,36.60
2022-11-20T05:09:33.108Z,35.74
2022-11-20T05:10:13.974Z,36.45
2022-11-20T05:10:54.044Z,35.60
2022-11-20T05:11:36.018Z,36.03
2022-11-20T05:12:17.093Z,36.70
2022-11-20T05:12:57.027Z,35.53
2022-11-20T05:13:37.023Z,36.05
2022-11-20T05:14:16.977Z,35.21
2022-11-20T05:14:57.031Z,33.14
2022-11-20T05:15:37.008Z,33.92
2022-11-20T05:16:26.076Z,32.36
2022-11-20T05:17:05.969Z,34.63
2022-11-20T05:17:46.035Z,35.60
2022-11-20T05:18:26.003Z,35.11
2022-11-20T05:19:06.083Z,35.45
2022-11-20T05:19:49.357Z,35.14
2022-11-20T05:20:32.047Z,36.42
2022-11-20T05:21:12.989Z,35.65
2022-11-20T05:21:53.034Z,35.80
2022-11-20T05:22:33.987Z,36.88
2022-11-20T05:23:14.059Z,35.83
2022-11-20T05:23:54.999Z,35.75
2022-11-20T05:24:35.022Z,36.45
2022-11-20T05:25:14.983Z,36.21
2022-11-20T05:25:58.827Z,34.61
2022-11-20T05:26:38.989Z,35.69
2022-11-20T05:27:19.033Z,36.25
2022-11-20T05:27:58.961Z,34.28
2022-11-20T05:28:40.035Z,33.95
2022-11-20T05:29:21.309Z,34.50
2022-11-20T05:30:02.040Z,33.63
2022-11-20T05:30:42.992Z,35.08
2022-11-20T05:31:29.067Z,34.20
2022-11-20T05:32:10.005Z,35.64
2022-11-20T05:32:50.014Z,37.44
2022-11-20T05:33:29.975Z,36.88
2022-11-20T05:34:10.108Z,38.03
2022-11-20T05:34:50.160Z,38.49
2022-11-20T05:35:30.992Z,36.39
2022-11-20T05:36:12.964Z,36.40
2022-11-20T05:36:53.097Z,36.71
2022-11-20T05:37:33.954Z,37.50
2022-11-20T05:38:14.136Z,37.94
2022-11-20T05:38:59.752Z,36.51
2022-11-20T05:39:41.007Z,35.79
2022-11-20T05:40:21.980Z,36.24
2022-11-20T05:41:02.025Z,37.04
2022-11-20T05:41:41.939Z,36.66
2022-11-20T05:42:34.188Z,35.65
2022-11-20T05:43:15.027Z,35.28
2022-11-20T05:43:57.044Z,35.54
2022-11-20T05:44:36.980Z,35.92
2022-11-20T05:45:17.027Z,34.54
2022-11-20T05:46:02.059Z,34.56
2022-11-20T05:46:45.024Z,33.34
2022-11-20T05:47:27.980Z,33.04
2022-11-20T05:48:09.045Z,33.60
2022-11-20T05:48:50.939Z,33.39
2022-11-20T05:49:30.971Z,32.60
2022-11-20T05:50:11.961Z,31.65
2022-11-20T05:50:52.040Z,32.70
2022-11-20T05:51:33.025Z,33.76
2022-11-20T05:52:12.976Z,32.85
2022-11-20T05:52:52.970Z,32.15
2022-11-20T05:53:34.156Z,32.42
2022-11-20T05:54:13.953Z,31.66
2022-11-20T05:54:53.983Z,32.77
2022-11-20T05:55:34.922Z,33.58
2022-11-20T05:56:22.227Z,33.40
2022-11-20T05:57:01.974Z,32.14
2022-11-20T05:57:43.203Z,33.50
2022-11-20T05:58:22.946Z,33.44
2022-11-20T05:59:03.996Z,34.56
2022-11-20T05:59:44.966Z,34.20
2022-11-20T06:00:24.966Z,34.22
2022-11-20T06:01:25.952Z,33.88
2022-11-20T06:02:13.037Z,33.70
2022-11-20T06:03:06.936Z,34.30
2022-11-20T06:04:01.951Z,34.46
2022-11-20T06:04:55.948Z,35.16
2022-11-20T06:05:49.933Z,34.60
2022-11-20T06:06:43.936Z,36.14
2022-11-20T06:07:30.969Z,34.29
2022-11-20T06:08:04.970Z,34.79
2022-11-20T06:08:51.926Z,35.08
2022-11-20T06:09:25.967Z,34.41
2022-11-20T06:10:12.944Z,34.42
2022-11-20T06:10:47.995Z,35.11
2022-11-20T06:11:34.916Z,35.76
2022-11-20T06:12:09.043Z,36.84
2022-11-20T06:12:55.944Z,36.72
2022-11-20T06:13:29.965Z,35.49
2022-11-20T06:14:16.899Z,36.81
2022-11-20T06:14:50.979Z,36.94
2022-11-20T06:15:37.908Z,37.76
2022-11-20T06:16:12.018Z,37.79
2022-11-20T06:16:58.932Z,37.83
2022-11-20T06:17:32.951Z,36.21
2022-11-20T06:18:19.940Z,35.64
2022-11-20T06:18:53.981Z,36.81
2022-11-20T06:19:40.911Z,37.10
2022-11-20T06:20:16.009Z,34.96
2022-11-20T06:21:28.912Z,34.61
2022-11-20T06:22:02.968Z,34.79
2022-11-20T06:22:49.955Z,35.44
2022-11-20T06:23:30.968Z,35.13
2022-11-20T06:24:25.942Z,36.67
2022-11-20T06:25:19.927Z,35.84
2022-11-20T06:26:29.917Z,36.91
2022-11-20T06:27:23.902Z,35.80
2022-11-20T06:28:17.878Z,34.58
2022-11-20T06:29:00.911Z,34.75
2022-11-20T06:29:40.963Z,38.17
2022-11-20T06:30:21.922Z,38.67
2022-11-20T06:31:02.029Z,37.40
2022-11-20T06:31:42.899Z,38.19
2022-11-20T06:32:22.961Z,38.58
2022-11-20T06:33:02.927Z,38.40
2022-11-20T06:33:42.931Z,40.54
2022-11-20T06:34:22.913Z,38.25
2022-11-20T06:35:02.935Z,37.06
2022-11-20T06:35:42.893Z,38.16
2022-11-20T06:36:25.225Z,37.56
2022-11-20T06:37:04.932Z,36.10
2022-11-20T06:37:44.952Z,34.26
2022-11-20T06:38:25.883Z,35.78
2022-11-20T06:39:07.172Z,36.47
2022-11-20T06:39:46.925Z,36.39
2022-11-20T06:40:26.966Z,36.25
2022-11-20T06:41:06.873Z,34.97
2022-11-20T06:41:46.948Z,36.81
2022-11-20T06:42:26.904Z,34.92
2022-11-20T06:43:06.926Z,34.94
2022-11-20T06:43:47.882Z,33.30
2022-11-20T06:44:28.035Z,33.88
2022-11-20T06:45:07.929Z,34.66
2022-11-20T06:45:47.939Z,34.79
2022-11-20T06:46:28.894Z,35.66
2022-11-20T06:47:09.081Z,34.30
2022-11-20T06:47:49.883Z,34.35
2022-11-20T06:48:31.923Z,32.71
2022-11-20T06:49:11.932Z,33.42
2022-11-20T06:49:51.968Z,34.86
2022-11-20T06:50:31.962Z,34.34
2022-11-20T06:51:14.000Z,35.46
2022-11-20T06:51:53.892Z,34.67
2022-11-20T06:52:33.909Z,35.15
2022-11-20T06:53:13.888Z,34.64
2022-11-20T06:53:53.923Z,34.24
2022-11-20T06:54:33.879Z,35.66
2022-11-20T06:55:14.922Z,34.05
2022-11-20T06:55:55.944Z,34.40
2022-11-20T06:56:35.991Z,35.28
2022-11-20T06:57:16.871Z,34.50
2022-11-20T06:57:57.945Z,35.17
2022-11-20T06:58:39.882Z,36.72
2022-11-20T06:59:20.293Z,36.33
2022-11-20T07:00:00.869Z,35.44
2022-11-20T07:00:41.210Z,35.00
2022-11-20T07:01:22.924Z,34.42
2022-11-20T07:02:03.291Z,34.25
2022-11-20T07:02:42.888Z,36.06
2022-11-20T07:03:22.910Z,35.99
2022-11-20T07:04:02.890Z,36.26
2022-11-20T07:04:42.920Z,37.91
2022-11-20T07:05:23.853Z,37.70
2022-11-20T07:06:05.191Z,37.67
2022-11-20T07:06:45.890Z,38.44
2022-11-20T07:07:26.086Z,39.59
2022-11-20T07:08:06.852Z,42.66
2022-11-20T07:09:00.891Z,43.85
2022-11-20T07:09:54.879Z,46.42
2022-11-20T07:10:49.861Z,53.04
2022-11-20T07:11:43.881Z,63.05
2022-11-20T07:12:24.844Z,73.61
2022-11-20T07:13:04.896Z,81.32
2022-11-20T07:13:44.861Z,86.31
2022-11-20T07:14:24.963Z,84.28
2022-11-20T07:15:04.857Z,77.66
2022-11-20T07:15:44.941Z,75.05
2022-11-20T07:16:25.901Z,71.40
2022-11-20T07:17:05.888Z,67.91
2022-11-20T07:17:39.918Z,69.46
2022-11-20T07:18:26.861Z,70.13
2022-11-20T07:19:00.928Z,66.71
2022-11-20T07:19:47.824Z,61.59
2022-11-20T07:20:22.199Z,55.71
2022-11-20T07:21:10.835Z,49.33
2022-11-20T07:21:44.953Z,45.71
2022-11-20T07:22:24.879Z,45.55
2022-11-20T07:23:05.896Z,47.16
2022-11-20T07:23:45.854Z,45.84
2022-11-20T07:24:25.932Z,45.11
2022-11-20T07:25:05.836Z,45.66
2022-11-20T07:25:45.878Z,46.64
2022-11-20T07:26:26.857Z,45.26
2022-11-20T07:27:06.907Z,44.67
2022-11-20T07:27:46.878Z,45.56
2022-11-20T07:28:27.147Z,46.20
2022-11-20T07:29:06.859Z,44.91
2022-11-20T07:29:46.876Z,41.53
2022-11-20T07:30:26.875Z,42.21
2022-11-20T07:31:07.767Z,43.74
2022-11-20T07:31:47.834Z,46.61
2022-11-20T07:32:27.906Z,48.64
2022-11-20T07:33:07.849Z,45.97
2022-11-20T07:33:47.925Z,46.19
2022-11-20T07:34:27.828Z,46.86
2022-11-20T07:35:07.903Z,46.58
2022-11-20T07:35:48.823Z,46.41
2022-11-20T07:36:28.951Z,46.00
2022-11-20T07:37:10.490Z,42.13
2022-11-20T07:37:50.884Z,39.46
2022-11-20T07:38:30.858Z,40.33
2022-11-20T07:39:10.868Z,38.55
2022-11-20T07:39:50.833Z,37.24
2022-11-20T07:40:30.903Z,38.05
2022-11-20T07:41:10.847Z,38.38
2022-11-20T07:41:50.912Z,37.75
2022-11-20T07:42:30.817Z,38.34
2022-11-20T07:43:10.859Z,38.59
2022-11-20T07:43:51.862Z,35.61
2022-11-20T07:44:31.851Z,36.24
2022-11-20T07:45:12.806Z,37.35
2022-11-20T07:45:53.017Z,36.16
2022-11-20T07:46:32.796Z,34.95
2022-11-20T07:47:13.072Z,33.45
2022-11-20T07:47:52.829Z,34.89
2022-11-20T07:48:33.423Z,36.47
2022-11-20T07:49:13.875Z,34.26
2022-11-20T07:49:53.902Z,33.61
2022-11-20T07:50:33.801Z,33.60
2022-11-20T07:51:14.460Z,33.58
2022-11-20T07:52:04.202Z,32.69
2022-11-20T07:52:44.856Z,35.37
2022-11-20T07:53:27.814Z,35.31
2022-11-20T07:54:07.867Z,35.03
2022-11-20T07:54:51.888Z,34.46
2022-11-20T07:55:31.887Z,34.89
2022-11-20T07:56:12.818Z,35.78
2022-11-20T07:56:52.865Z,35.42
2022-11-20T07:57:33.795Z,34.17
2022-11-20T07:58:14.818Z,34.33
2022-11-20T07:58:54.804Z,35.01
2022-11-20T07:59:48.814Z,35.13
2022-11-20T08:00:29.846Z,34.90
2022-11-20T08:01:14.977Z,35.19
2022-11-20T08:01:54.813Z,36.05
2022-11-20T08:02:34.885Z,35.28
2022-11-20T08:03:18.104Z,34.19
2022-11-20T08:04:01.912Z,34.51
2022-11-20T08:04:41.790Z,35.08
2022-11-20T08:05:21.898Z,36.26
2022-11-20T08:06:01.816Z,36.04
2022-11-20T08:06:41.823Z,38.46
2022-11-20T08:07:21.866Z,39.17
2022-11-20T08:08:01.920Z,39.95
2022-11-20T08:08:43.241Z,40.76
2022-11-20T08:09:23.890Z,39.65
2022-11-20T08:10:03.775Z,42.00
2022-11-20T08:10:43.822Z,41.80
2022-11-20T08:11:43.819Z,41.83
2022-11-20T08:12:47.369Z,40.91
2022-11-20T08:13:46.788Z,41.39
2022-11-20T08:14:28.284Z,41.38
2022-11-20T08:15:13.111Z,37.59
2022-11-20T08:15:57.924Z,36.39
2022-11-20T08:16:37.773Z,38.46
2022-11-20T08:17:17.862Z,42.74
2022-11-20T08:18:15.416Z,42.14
2022-11-20T08:18:58.773Z,43.39
2022-11-20T08:19:32.917Z,45.20
2022-11-20T08:20:20.801Z,45.36
2022-11-20T08:20:54.864Z,45.01
2022-11-20T08:21:41.795Z,45.35
2022-11-20T08:22:16.963Z,47.46
2022-11-20T08:22:57.836Z,47.41
2022-11-20T08:23:38.943Z,48.19
2022-11-20T08:24:19.800Z,46.53
2022-11-20T08:25:00.031Z,46.79
2022-11-20T08:25:42.831Z,48.54
2022-11-20T08:26:23.409Z,47.53
2022-11-20T08:27:08.780Z,49.70
2022-11-20T08:27:48.860Z,51.99
2022-11-20T08:28:29.810Z,55.72
2022-11-20T08:29:10.867Z,55.56
2022-11-20T08:29:50.770Z,52.39
2022-11-20T08:30:30.833Z,47.64
2022-11-20T08:31:11.777Z,45.80
2022-11-20T08:31:52.844Z,44.36
2022-11-20T08:32:32.771Z,44.06
2022-11-20T08:33:16.342Z,44.95
2022-11-20T08:33:57.796Z,43.30
2022-11-20T08:34:37.837Z,43.24
2022-11-20T08:35:18.802Z,42.45
2022-11-20T08:35:58.958Z,46.16
2022-11-20T08:36:41.797Z,39.70
2022-11-20T08:37:22.915Z,39.54
2022-11-20T08:38:03.762Z,39.35
2022-11-20T08:38:43.813Z,38.81
2022-11-20T08:39:24.170Z,38.74
2022-11-20T08:40:04.833Z,38.05
2022-11-20T08:40:44.773Z,36.64
2022-11-20T08:41:24.803Z,35.69
2022-11-20T08:42:04.744Z,35.64
2022-11-20T08:42:44.937Z,39.49
2022-11-20T08:43:24.739Z,37.62
2022-11-20T08:44:10.069Z,36.11
2022-11-20T08:44:50.777Z,36.29
2022-11-20T08:45:34.305Z,38.88
2022-11-20T08:46:14.756Z,38.03
2022-11-20T08:46:54.815Z,35.42
2022-11-20T08:47:35.760Z,35.10
2022-11-20T08:48:16.363Z,36.16
2022-11-20T08:48:56.758Z,34.01
2022-11-20T08:49:36.808Z,34.21
2022-11-20T08:50:18.778Z,33.64
2022-11-20T08:50:58.759Z,34.14
2022-11-20T08:51:39.715Z,34.70
2022-11-20T08:52:19.786Z,33.59
2022-11-20T08:52:59.753Z,35.90
2022-11-20T08:53:39.933Z,38.51
2022-11-20T08:54:20.762Z,39.89
2022-11-20T08:55:14.764Z,39.74
2022-11-20T08:55:55.801Z,41.75
2022-11-20T08:56:35.784Z,42.91
2022-11-20T08:57:16.726Z,44.22
2022-11-20T08:57:56.792Z,45.55
2022-11-20T08:59:01.834Z,43.54
2022-11-20T09:00:04.596Z,43.45
2022-11-20T09:00:36.818Z,42.38
2022-11-20T09:01:17.786Z,42.85
2022-11-20T09:01:51.885Z,45.40
2022-11-20T09:03:00.745Z,48.05
2022-11-20T09:03:34.810Z,48.38
2022-11-20T09:04:21.746Z,46.56
2022-11-20T09:04:55.832Z,44.22
2022-11-20T09:05:42.740Z,45.36
2022-11-20T09:06:16.791Z,45.14
2022-11-20T09:06:58.790Z,45.31
2022-11-20T09:07:38.837Z,41.88
2022-11-20T09:08:18.748Z,41.35
2022-11-20T09:09:06.670Z,42.13
2022-11-20T09:10:03.678Z,39.39
2022-11-20T09:10:46.750Z,38.69
2022-11-20T09:11:26.722Z,39.58
2022-11-20T09:12:13.760Z,40.29
2022-11-20T09:12:47.768Z,40.94
2022-11-20T09:13:36.741Z,40.21
2022-11-20T09:14:10.769Z,40.19
2022-11-20T09:14:57.728Z,42.46
2022-11-20T09:15:32.750Z,47.59
2022-11-20T09:16:19.731Z,47.16